sensor_id;sensor_type;location;lat;lon;timestamp;P1;durP1;ratioP1;P2;durP2;ratioP2
39218;SDS011;24934;52.752;6.964;2023-03-01T00:01:59;63.73;;;38.47;;
39218;SDS011;24934;52.752;6.964;2023-03-01T00:04:26;62.90;;;38.40;;
39218;SDS011;24934;52.752;6.964;2023-03-01T00:06:52;67.70;;;39.57;;
39218;SDS011;24934;52.752;6.964;2023-03-01T00:09:18;65.67;;;39.97;;
39218;SDS011;24934;52.752;6.964;2023-03-01T00:11:44;75.07;;;40.40;;
39218;SDS011;24934;52.752;6.964;2023-03-01T00:14:10;70.43;;;41.40;;
39218;SDS011;24934;52.752;6.964;2023-03-01T00:16:37;72.17;;;41.20;;
39218;SDS011;24934;52.752;6.964;2023-03-01T00:19:05;69.00;;;41.20;;
39218;SDS011;24934;52.752;6.964;2023-03-01T00:21:33;70.63;;;42.33;;
39218;SDS011;24934;52.752;6.964;2023-03-01T00:24:00;74.23;;;42.67;;
39218;SDS011;24934;52.752;6.964;2023-03-01T00:26:26;75.53;;;43.53;;
39218;SDS011;24934;52.752;6.964;2023-03-01T00:28:52;81.87;;;45.03;;
39218;SDS011;24934;52.752;6.964;2023-03-01T00:31:24;83.93;;;45.03;;
39218;SDS011;24934;52.752;6.964;2023-03-01T00:33:58;77.73;;;44.67;;
39218;SDS011;24934;52.752;6.964;2023-03-01T00:36:26;88.13;;;44.63;;
39218;SDS011;24934;52.752;6.964;2023-03-01T00:38:53;87.50;;;45.37;;
39218;SDS011;24934;52.752;6.964;2023-03-01T00:41:19;86.13;;;45.10;;
39218;SDS011;24934;52.752;6.964;2023-03-01T00:43:47;77.77;;;45.60;;
39218;SDS011;24934;52.752;6.964;2023-03-01T00:46:17;90.07;;;47.80;;
39218;SDS011;24934;52.752;6.964;2023-03-01T00:48:45;89.40;;;47.23;;
39218;SDS011;24934;52.752;6.964;2023-03-01T00:53:39;94.53;;;47.23;;
39218;SDS011;24934;52.752;6.964;2023-03-01T00:56:11;92.60;;;48.17;;
39218;SDS011;24934;52.752;6.964;2023-03-01T00:58:39;90.77;;;46.03;;
39218;SDS011;24934;52.752;6.964;2023-03-01T01:01:12;89.10;;;47.73;;
39218;SDS011;24934;52.752;6.964;2023-03-01T01:03:47;86.70;;;47.33;;
39218;SDS011;24934;52.752;6.964;2023-03-01T01:06:19;88.37;;;47.83;;
39218;SDS011;24934;52.752;6.964;2023-03-01T01:08:52;90.30;;;47.00;;
39218;SDS011;24934;52.752;6.964;2023-03-01T01:11:19;73.20;;;43.20;;
39218;SDS011;24934;52.752;6.964;2023-03-01T01:13:46;80.30;;;41.13;;
39218;SDS011;24934;52.752;6.964;2023-03-01T01:16:13;138.43;;;43.23;;
39218;SDS011;24934;52.752;6.964;2023-03-01T01:18:39;114.17;;;43.20;;
39218;SDS011;24934;52.752;6.964;2023-03-01T01:21:11;78.87;;;43.30;;
39218;SDS011;24934;52.752;6.964;2023-03-01T01:23:39;78.77;;;45.30;;
39218;SDS011;24934;52.752;6.964;2023-03-01T01:26:06;81.93;;;46.43;;
39218;SDS011;24934;52.752;6.964;2023-03-01T01:28:33;92.60;;;47.30;;
39218;SDS011;24934;52.752;6.964;2023-03-01T01:30:59;88.43;;;46.90;;
39218;SDS011;24934;52.752;6.964;2023-03-01T01:33:25;92.23;;;48.63;;
39218;SDS011;24934;52.752;6.964;2023-03-01T01:35:51;94.40;;;47.70;;
39218;SDS011;24934;52.752;6.964;2023-03-01T01:38:17;91.50;;;47.80;;
39218;SDS011;24934;52.752;6.964;2023-03-01T01:40:44;98.07;;;49.17;;
39218;SDS011;24934;52.752;6.964;2023-03-01T01:43:14;91.17;;;47.43;;
39218;SDS011;24934;52.752;6.964;2023-03-01T01:45:52;94.93;;;49.33;;
39218;SDS011;24934;52.752;6.964;2023-03-01T01:48:24;94.30;;;48.93;;
39218;SDS011;24934;52.752;6.964;2023-03-01T01:51:05;89.53;;;48.20;;
39218;SDS011;24934;52.752;6.964;2023-03-01T01:53:34;90.60;;;49.53;;
39218;SDS011;24934;52.752;6.964;2023-03-01T01:56:01;96.00;;;49.33;;
39218;SDS011;24934;52.752;6.964;2023-03-01T01:58:30;96.13;;;48.83;;
39218;SDS011;24934;52.752;6.964;2023-03-01T02:00:59;95.93;;;48.70;;
39218;SDS011;24934;52.752;6.964;2023-03-01T02:03:27;92.67;;;48.60;;
39218;SDS011;24934;52.752;6.964;2023-03-01T02:08:49;96.63;;;48.83;;
39218;SDS011;24934;52.752;6.964;2023-03-01T02:11:17;90.57;;;48.50;;
39218;SDS011;24934;52.752;6.964;2023-03-01T02:13:44;98.67;;;49.17;;
39218;SDS011;24934;52.752;6.964;2023-03-01T02:16:12;87.67;;;47.23;;
39218;SDS011;24934;52.752;6.964;2023-03-01T02:18:40;97.93;;;47.57;;
39218;SDS011;24934;52.752;6.964;2023-03-01T02:24:06;84.57;;;45.47;;
39218;SDS011;24934;52.752;6.964;2023-03-01T02:26:45;90.70;;;45.43;;
39218;SDS011;24934;52.752;6.964;2023-03-01T02:29:14;90.80;;;46.03;;
39218;SDS011;24934;52.752;6.964;2023-03-01T02:31:40;78.10;;;43.77;;
39218;SDS011;24934;52.752;6.964;2023-03-01T02:34:06;80.17;;;44.80;;
39218;SDS011;24934;52.752;6.964;2023-03-01T02:36:45;81.87;;;44.70;;
39218;SDS011;24934;52.752;6.964;2023-03-01T02:39:33;86.13;;;44.70;;
39218;SDS011;24934;52.752;6.964;2023-03-01T02:42:07;82.73;;;45.07;;
39218;SDS011;24934;52.752;6.964;2023-03-01T02:44:42;85.23;;;45.47;;
39218;SDS011;24934;52.752;6.964;2023-03-01T02:47:07;89.73;;;45.70;;
39218;SDS011;24934;52.752;6.964;2023-03-01T02:49:34;83.37;;;46.73;;
39218;SDS011;24934;52.752;6.964;2023-03-01T02:54:51;80.23;;;44.80;;
39218;SDS011;24934;52.752;6.964;2023-03-01T02:57:52;84.40;;;43.67;;
39218;SDS011;24934;52.752;6.964;2023-03-01T03:00:19;84.10;;;43.70;;
39218;SDS011;24934;52.752;6.964;2023-03-01T03:02:52;91.30;;;46.30;;
39218;SDS011;24934;52.752;6.964;2023-03-01T03:05:19;78.43;;;43.60;;
39218;SDS011;24934;52.752;6.964;2023-03-01T03:07:47;78.77;;;43.43;;
39218;SDS011;24934;52.752;6.964;2023-03-01T03:10:18;71.90;;;42.17;;
39218;SDS011;24934;52.752;6.964;2023-03-01T03:12:57;72.70;;;41.33;;
39218;SDS011;24934;52.752;6.964;2023-03-01T03:15:25;79.03;;;43.83;;
39218;SDS011;24934;52.752;6.964;2023-03-01T03:17:52;79.80;;;44.00;;
39218;SDS011;24934;52.752;6.964;2023-03-01T03:20:19;77.07;;;43.57;;
39218;SDS011;24934;52.752;6.964;2023-03-01T03:22:49;75.63;;;41.33;;
39218;SDS011;24934;52.752;6.964;2023-03-01T03:25:16;68.87;;;40.43;;
39218;SDS011;24934;52.752;6.964;2023-03-01T03:27:43;75.47;;;42.07;;
39218;SDS011;24934;52.752;6.964;2023-03-01T03:30:11;74.53;;;42.37;;
39218;SDS011;24934;52.752;6.964;2023-03-01T03:32:39;78.47;;;42.47;;
39218;SDS011;24934;52.752;6.964;2023-03-01T03:35:06;80.63;;;43.43;;
39218;SDS011;24934;52.752;6.964;2023-03-01T03:37:39;92.57;;;46.43;;
39218;SDS011;24934;52.752;6.964;2023-03-01T03:40:24;95.37;;;48.63;;
39218;SDS011;24934;52.752;6.964;2023-03-01T03:42:50;89.87;;;48.10;;
39218;SDS011;24934;52.752;6.964;2023-03-01T03:45:16;91.33;;;46.37;;
39218;SDS011;24934;52.752;6.964;2023-03-01T03:47:42;93.33;;;46.80;;
39218;SDS011;24934;52.752;6.964;2023-03-01T03:50:09;98.60;;;48.83;;
39218;SDS011;24934;52.752;6.964;2023-03-01T03:52:39;95.20;;;48.33;;
39218;SDS011;24934;52.752;6.964;2023-03-01T03:55:06;92.50;;;47.50;;
39218;SDS011;24934;52.752;6.964;2023-03-01T03:57:34;96.93;;;49.97;;
39218;SDS011;24934;52.752;6.964;2023-03-01T04:00:00;98.00;;;49.03;;
39218;SDS011;24934;52.752;6.964;2023-03-01T04:02:30;95.10;;;48.63;;
39218;SDS011;24934;52.752;6.964;2023-03-01T04:04:56;95.40;;;48.33;;
39218;SDS011;24934;52.752;6.964;2023-03-01T04:07:21;104.17;;;50.90;;
39218;SDS011;24934;52.752;6.964;2023-03-01T04:09:47;103.17;;;50.37;;
39218;SDS011;24934;52.752;6.964;2023-03-01T04:12:12;102.40;;;50.70;;
39218;SDS011;24934;52.752;6.964;2023-03-01T04:14:38;100.50;;;49.00;;
39218;SDS011;24934;52.752;6.964;2023-03-01T04:17:04;97.80;;;49.10;;
39218;SDS011;24934;52.752;6.964;2023-03-01T04:19:31;98.43;;;50.60;;
39218;SDS011;24934;52.752;6.964;2023-03-01T04:22:07;106.47;;;49.53;;
39218;SDS011;24934;52.752;6.964;2023-03-01T04:24:37;97.47;;;50.63;;
39218;SDS011;24934;52.752;6.964;2023-03-01T04:27:03;107.63;;;51.57;;
39218;SDS011;24934;52.752;6.964;2023-03-01T04:29:28;99.80;;;51.03;;
39218;SDS011;24934;52.752;6.964;2023-03-01T04:31:54;99.07;;;51.33;;
39218;SDS011;24934;52.752;6.964;2023-03-01T04:34:20;99.87;;;50.37;;
39218;SDS011;24934;52.752;6.964;2023-03-01T04:36:45;96.63;;;48.00;;
39218;SDS011;24934;52.752;6.964;2023-03-01T04:39:11;97.80;;;49.33;;
39218;SDS011;24934;52.752;6.964;2023-03-01T04:41:37;102.93;;;50.37;;
39218;SDS011;24934;52.752;6.964;2023-03-01T04:44:04;96.97;;;48.47;;
39218;SDS011;24934;52.752;6.964;2023-03-01T04:46:30;94.67;;;49.70;;
39218;SDS011;24934;52.752;6.964;2023-03-01T04:48:56;96.63;;;48.00;;
39218;SDS011;24934;52.752;6.964;2023-03-01T04:51:21;91.80;;;47.27;;
39218;SDS011;24934;52.752;6.964;2023-03-01T04:53:47;89.13;;;46.57;;
39218;SDS011;24934;52.752;6.964;2023-03-01T04:56:13;91.40;;;46.27;;
39218;SDS011;24934;52.752;6.964;2023-03-01T04:58:39;100.00;;;48.47;;
39218;SDS011;24934;52.752;6.964;2023-03-01T05:01:17;92.33;;;46.47;;
39218;SDS011;24934;52.752;6.964;2023-03-01T05:03:45;94.13;;;45.80;;
39218;SDS011;24934;52.752;6.964;2023-03-01T05:06:12;94.37;;;48.10;;
39218;SDS011;24934;52.752;6.964;2023-03-01T05:08:39;95.20;;;47.20;;
39218;SDS011;24934;52.752;6.964;2023-03-01T05:11:06;94.97;;;47.17;;
39218;SDS011;24934;52.752;6.964;2023-03-01T05:13:34;95.43;;;48.40;;
39218;SDS011;24934;52.752;6.964;2023-03-01T05:16:02;98.20;;;47.33;;
39218;SDS011;24934;52.752;6.964;2023-03-01T05:18:29;96.80;;;50.17;;
39218;SDS011;24934;52.752;6.964;2023-03-01T05:21:01;97.97;;;48.03;;
39218;SDS011;24934;52.752;6.964;2023-03-01T05:23:31;100.30;;;49.03;;
39218;SDS011;24934;52.752;6.964;2023-03-01T05:25:59;95.30;;;48.40;;
39218;SDS011;24934;52.752;6.964;2023-03-01T05:28:26;95.07;;;48.37;;
39218;SDS011;24934;52.752;6.964;2023-03-01T05:30:56;96.73;;;48.93;;
39218;SDS011;24934;52.752;6.964;2023-03-01T05:33:22;96.47;;;48.23;;
39218;SDS011;24934;52.752;6.964;2023-03-01T05:35:48;97.27;;;49.97;;
39218;SDS011;24934;52.752;6.964;2023-03-01T05:38:16;105.20;;;51.23;;
39218;SDS011;24934;52.752;6.964;2023-03-01T05:40:43;97.07;;;49.20;;
39218;SDS011;24934;52.752;6.964;2023-03-01T05:43:11;106.33;;;52.10;;
39218;SDS011;24934;52.752;6.964;2023-03-01T05:45:38;107.10;;;51.37;;
39218;SDS011;24934;52.752;6.964;2023-03-01T05:48:05;103.27;;;51.37;;
39218;SDS011;24934;52.752;6.964;2023-03-01T05:50:33;102.37;;;50.73;;
39218;SDS011;24934;52.752;6.964;2023-03-01T05:53:05;100.23;;;50.07;;
39218;SDS011;24934;52.752;6.964;2023-03-01T05:55:31;105.33;;;51.27;;
39218;SDS011;24934;52.752;6.964;2023-03-01T05:57:58;102.10;;;49.20;;
39218;SDS011;24934;52.752;6.964;2023-03-01T06:00:25;106.27;;;52.47;;
39218;SDS011;24934;52.752;6.964;2023-03-01T06:02:53;99.50;;;52.60;;
39218;SDS011;24934;52.752;6.964;2023-03-01T06:05:22;101.33;;;50.57;;
39218;SDS011;24934;52.752;6.964;2023-03-01T06:07:48;100.83;;;51.50;;
39218;SDS011;24934;52.752;6.964;2023-03-01T06:10:21;103.07;;;52.53;;
39218;SDS011;24934;52.752;6.964;2023-03-01T06:12:47;109.70;;;52.27;;
39218;SDS011;24934;52.752;6.964;2023-03-01T06:15:14;105.83;;;51.47;;
39218;SDS011;24934;52.752;6.964;2023-03-01T06:17:44;105.43;;;52.53;;
39218;SDS011;24934;52.752;6.964;2023-03-01T06:20:12;105.53;;;52.37;;
39218;SDS011;24934;52.752;6.964;2023-03-01T06:22:43;103.47;;;50.93;;
39218;SDS011;24934;52.752;6.964;2023-03-01T06:25:09;110.83;;;53.20;;
39218;SDS011;24934;52.752;6.964;2023-03-01T06:27:35;112.40;;;53.93;;
39218;SDS011;24934;52.752;6.964;2023-03-01T06:30:05;110.50;;;54.20;;
39218;SDS011;24934;52.752;6.964;2023-03-01T06:32:32;109.03;;;53.93;;
39218;SDS011;24934;52.752;6.964;2023-03-01T06:34:57;114.47;;;51.83;;
39218;SDS011;24934;52.752;6.964;2023-03-01T06:37:23;110.33;;;53.20;;
39218;SDS011;24934;52.752;6.964;2023-03-01T06:39:51;117.57;;;55.73;;
39218;SDS011;24934;52.752;6.964;2023-03-01T06:42:17;114.13;;;55.57;;
39218;SDS011;24934;52.752;6.964;2023-03-01T06:44:43;113.53;;;55.90;;
39218;SDS011;24934;52.752;6.964;2023-03-01T06:47:10;110.50;;;54.60;;
39218;SDS011;24934;52.752;6.964;2023-03-01T06:49:36;112.03;;;54.77;;
39218;SDS011;24934;52.752;6.964;2023-03-01T06:52:01;109.87;;;52.70;;
39218;SDS011;24934;52.752;6.964;2023-03-01T06:54:30;108.77;;;55.13;;
39218;SDS011;24934;52.752;6.964;2023-03-01T06:56:55;119.10;;;54.83;;
39218;SDS011;24934;52.752;6.964;2023-03-01T06:59:21;105.33;;;54.50;;
39218;SDS011;24934;52.752;6.964;2023-03-01T07:01:47;107.50;;;53.63;;
39218;SDS011;24934;52.752;6.964;2023-03-01T07:04:12;111.47;;;55.07;;
39218;SDS011;24934;52.752;6.964;2023-03-01T07:06:38;110.80;;;51.80;;
39218;SDS011;24934;52.752;6.964;2023-03-01T07:09:05;107.70;;;52.97;;
39218;SDS011;24934;52.752;6.964;2023-03-01T07:11:30;107.53;;;53.30;;
39218;SDS011;24934;52.752;6.964;2023-03-01T07:13:56;101.30;;;52.50;;
39218;SDS011;24934;52.752;6.964;2023-03-01T07:16:23;96.40;;;51.57;;
39218;SDS011;24934;52.752;6.964;2023-03-01T07:18:49;96.67;;;51.67;;
39218;SDS011;24934;52.752;6.964;2023-03-01T07:21:14;97.80;;;51.03;;
39218;SDS011;24934;52.752;6.964;2023-03-01T07:23:41;83.23;;;50.77;;
39218;SDS011;24934;52.752;6.964;2023-03-01T07:26:07;77.13;;;48.33;;
39218;SDS011;24934;52.752;6.964;2023-03-01T07:28:33;74.57;;;47.23;;
39218;SDS011;24934;52.752;6.964;2023-03-01T07:31:05;61.17;;;41.00;;
39218;SDS011;24934;52.752;6.964;2023-03-01T07:33:31;52.57;;;38.77;;
39218;SDS011;24934;52.752;6.964;2023-03-01T07:35:57;48.17;;;34.17;;
39218;SDS011;24934;52.752;6.964;2023-03-01T07:38:24;41.07;;;32.73;;
39218;SDS011;24934;52.752;6.964;2023-03-01T07:40:50;37.53;;;30.03;;
39218;SDS011;24934;52.752;6.964;2023-03-01T07:43:16;32.80;;;27.73;;
39218;SDS011;24934;52.752;6.964;2023-03-01T07:45:41;36.00;;;26.63;;
39218;SDS011;24934;52.752;6.964;2023-03-01T07:48:07;31.97;;;26.43;;
39218;SDS011;24934;52.752;6.964;2023-03-01T07:50:33;32.93;;;25.43;;
39218;SDS011;24934;52.752;6.964;2023-03-01T07:52:59;29.93;;;22.90;;
39218;SDS011;24934;52.752;6.964;2023-03-01T07:55:24;28.90;;;24.50;;
39218;SDS011;24934;52.752;6.964;2023-03-01T07:57:50;27.50;;;22.73;;
39218;SDS011;24934;52.752;6.964;2023-03-01T08:00:15;27.97;;;22.53;;
39218;SDS011;24934;52.752;6.964;2023-03-01T08:02:41;25.23;;;21.60;;
39218;SDS011;24934;52.752;6.964;2023-03-01T08:05:07;23.63;;;21.23;;
39218;SDS011;24934;52.752;6.964;2023-03-01T08:07:34;23.73;;;21.23;;
39218;SDS011;24934;52.752;6.964;2023-03-01T08:10:00;24.87;;;22.23;;
39218;SDS011;24934;52.752;6.964;2023-03-01T08:12:26;22.93;;;20.47;;
39218;SDS011;24934;52.752;6.964;2023-03-01T08:14:53;23.45;;;20.67;;
39218;SDS011;24934;52.752;6.964;2023-03-01T08:17:19;22.85;;;20.55;;
39218;SDS011;24934;52.752;6.964;2023-03-01T08:19:44;24.33;;;21.42;;
39218;SDS011;24934;52.752;6.964;2023-03-01T08:22:10;22.42;;;19.98;;
39218;SDS011;24934;52.752;6.964;2023-03-01T08:24:35;21.83;;;19.52;;
39218;SDS011;24934;52.752;6.964;2023-03-01T08:27:01;22.30;;;19.98;;
39218;SDS011;24934;52.752;6.964;2023-03-01T08:29:32;22.30;;;19.83;;
39218;SDS011;24934;52.752;6.964;2023-03-01T08:31:58;22.73;;;20.42;;
39218;SDS011;24934;52.752;6.964;2023-03-01T08:34:24;24.40;;;20.40;;
39218;SDS011;24934;52.752;6.964;2023-03-01T08:36:50;22.67;;;20.35;;
39218;SDS011;24934;52.752;6.964;2023-03-01T08:39:17;22.48;;;20.08;;
39218;SDS011;24934;52.752;6.964;2023-03-01T08:41:44;23.58;;;20.67;;
39218;SDS011;24934;52.752;6.964;2023-03-01T08:44:11;22.70;;;20.40;;
39218;SDS011;24934;52.752;6.964;2023-03-01T08:46:39;22.05;;;19.77;;
39218;SDS011;24934;52.752;6.964;2023-03-01T08:49:06;19.30;;;17.33;;
39218;SDS011;24934;52.752;6.964;2023-03-01T08:51:33;19.00;;;17.20;;
39218;SDS011;24934;52.752;6.964;2023-03-01T08:54:20;21.70;;;17.70;;
39218;SDS011;24934;52.752;6.964;2023-03-01T08:56:46;18.60;;;16.90;;
39218;SDS011;24934;52.752;6.964;2023-03-01T08:59:13;20.98;;;16.90;;
39218;SDS011;24934;52.752;6.964;2023-03-01T09:01:40;18.50;;;16.65;;
39218;SDS011;24934;52.752;6.964;2023-03-01T09:04:10;18.08;;;16.38;;
39218;SDS011;24934;52.752;6.964;2023-03-01T09:06:36;19.05;;;17.02;;
39218;SDS011;24934;52.752;6.964;2023-03-01T09:09:03;18.02;;;16.20;;
39218;SDS011;24934;52.752;6.964;2023-03-01T09:11:30;19.27;;;17.33;;
39218;SDS011;24934;52.752;6.964;2023-03-01T09:13:55;17.38;;;15.45;;
39218;SDS011;24934;52.752;6.964;2023-03-01T09:16:22;16.83;;;15.25;;
39218;SDS011;24934;52.752;6.964;2023-03-01T09:18:48;16.90;;;15.35;;
39218;SDS011;24934;52.752;6.964;2023-03-01T09:21:18;17.30;;;15.80;;
39218;SDS011;24934;52.752;6.964;2023-03-01T09:23:46;16.37;;;14.80;;
39218;SDS011;24934;52.752;6.964;2023-03-01T09:26:19;16.67;;;15.10;;
39218;SDS011;24934;52.752;6.964;2023-03-01T09:28:47;16.85;;;15.23;;
39218;SDS011;24934;52.752;6.964;2023-03-01T09:31:18;16.90;;;15.30;;
39218;SDS011;24934;52.752;6.964;2023-03-01T09:33:48;16.25;;;14.60;;
39218;SDS011;24934;52.752;6.964;2023-03-01T09:36:18;15.98;;;14.57;;
39218;SDS011;24934;52.752;6.964;2023-03-01T09:38:46;16.90;;;15.30;;
39218;SDS011;24934;52.752;6.964;2023-03-01T09:46:48;16.20;;;14.80;;
39218;SDS011;24934;52.752;6.964;2023-03-01T09:49:19;15.00;;;13.70;;
39218;SDS011;24934;52.752;6.964;2023-03-01T09:52:12;15.20;;;13.70;;
39218;SDS011;24934;52.752;6.964;2023-03-01T09:54:44;16.37;;;14.80;;
39218;SDS011;24934;52.752;6.964;2023-03-01T10:02:41;13.13;;;12.10;;
39218;SDS011;24934;52.752;6.964;2023-03-01T10:10:40;13.53;;;12.43;;
39218;SDS011;24934;52.752;6.964;2023-03-01T10:16:04;13.67;;;12.57;;
39218;SDS011;24934;52.752;6.964;2023-03-01T10:18:39;14.10;;;12.80;;
39218;SDS011;24934;52.752;6.964;2023-03-01T10:21:13;13.27;;;12.10;;
39218;SDS011;24934;52.752;6.964;2023-03-01T10:23:44;13.57;;;12.33;;
39218;SDS011;24934;52.752;6.964;2023-03-01T10:26:12;13.87;;;12.70;;
39218;SDS011;24934;52.752;6.964;2023-03-01T10:31:27;13.83;;;12.70;;
39218;SDS011;24934;52.752;6.964;2023-03-01T10:34:08;13.80;;;12.60;;
39218;SDS011;24934;52.752;6.964;2023-03-01T10:36:39;14.98;;;13.60;;
39218;SDS011;24934;52.752;6.964;2023-03-01T10:39:11;15.05;;;13.30;;
39218;SDS011;24934;52.752;6.964;2023-03-01T10:41:55;14.15;;;12.75;;
39218;SDS011;24934;52.752;6.964;2023-03-01T10:44:38;15.43;;;13.88;;
39218;SDS011;24934;52.752;6.964;2023-03-01T10:47:12;15.02;;;13.63;;
39218;SDS011;24934;52.752;6.964;2023-03-01T10:49:53;14.93;;;13.45;;
39218;SDS011;24934;52.752;6.964;2023-03-01T10:52:26;13.82;;;12.60;;
39218;SDS011;24934;52.752;6.964;2023-03-01T10:54:58;14.63;;;13.32;;
39218;SDS011;24934;52.752;6.964;2023-03-01T10:57:34;15.10;;;12.88;;
39218;SDS011;24934;52.752;6.964;2023-03-01T11:00:15;15.20;;;13.80;;
39218;SDS011;24934;52.752;6.964;2023-03-01T11:02:46;14.77;;;13.40;;
39218;SDS011;24934;52.752;6.964;2023-03-01T11:10:34;16.73;;;15.15;;
39218;SDS011;24934;52.752;6.964;2023-03-01T11:13:14;16.67;;;15.27;;
39218;SDS011;24934;52.752;6.964;2023-03-01T11:15:42;19.57;;;14.53;;
39218;SDS011;24934;52.752;6.964;2023-03-01T11:18:22;16.63;;;15.03;;
39218;SDS011;24934;52.752;6.964;2023-03-01T11:20:48;17.00;;;15.40;;
39218;SDS011;24934;52.752;6.964;2023-03-01T11:23:16;17.63;;;15.97;;
39218;SDS011;24934;52.752;6.964;2023-03-01T11:25:43;16.88;;;15.15;;
39218;SDS011;24934;52.752;6.964;2023-03-01T11:28:16;18.20;;;16.27;;
39218;SDS011;24934;52.752;6.964;2023-03-01T11:31:02;16.70;;;15.23;;
39218;SDS011;24934;52.752;6.964;2023-03-01T11:33:35;15.60;;;14.00;;
39218;SDS011;24934;52.752;6.964;2023-03-01T11:39:13;17.43;;;15.57;;
39218;SDS011;24934;52.752;6.964;2023-03-01T11:41:48;16.63;;;15.03;;
39218;SDS011;24934;52.752;6.964;2023-03-01T11:44:24;19.80;;;15.80;;
39218;SDS011;24934;52.752;6.964;2023-03-01T11:49:31;17.10;;;15.50;;
39218;SDS011;24934;52.752;6.964;2023-03-01T11:55:16;17.03;;;15.43;;
39218;SDS011;24934;52.752;6.964;2023-03-01T12:00:47;17.03;;;15.30;;
39218;SDS011;24934;52.752;6.964;2023-03-01T12:12:11;18.97;;;16.00;;
39218;SDS011;24934;52.752;6.964;2023-03-01T12:14:43;17.98;;;16.38;;
39218;SDS011;24934;52.752;6.964;2023-03-01T12:20:45;17.70;;;16.00;;
39218;SDS011;24934;52.752;6.964;2023-03-01T12:24:16;17.40;;;15.80;;
39218;SDS011;24934;52.752;6.964;2023-03-01T12:26:35;19.20;;;17.23;;
39218;SDS011;24934;52.752;6.964;2023-03-01T12:32:00;18.80;;;16.90;;
39218;SDS011;24934;52.752;6.964;2023-03-01T12:43:58;19.38;;;17.38;;
39218;SDS011;24934;52.752;6.964;2023-03-01T12:46:36;19.87;;;17.87;;
39218;SDS011;24934;52.752;6.964;2023-03-01T12:49:19;19.35;;;17.45;;
39218;SDS011;24934;52.752;6.964;2023-03-01T12:51:51;20.30;;;18.30;;
39218;SDS011;24934;52.752;6.964;2023-03-01T12:54:40;19.63;;;17.83;;
39218;SDS011;24934;52.752;6.964;2023-03-01T13:03:04;19.57;;;17.50;;
39218;SDS011;24934;52.752;6.964;2023-03-01T13:11:18;20.23;;;18.13;;
39218;SDS011;24934;52.752;6.964;2023-03-01T13:13:48;20.70;;;18.63;;
39218;SDS011;24934;52.752;6.964;2023-03-01T13:16:20;19.77;;;17.87;;
39218;SDS011;24934;52.752;6.964;2023-03-01T13:21:48;20.27;;;17.83;;
39218;SDS011;24934;52.752;6.964;2023-03-01T13:29:32;20.63;;;18.63;;
39218;SDS011;24934;52.752;6.964;2023-03-01T13:32:27;21.57;;;19.33;;
39218;SDS011;24934;52.752;6.964;2023-03-01T13:34:57;21.13;;;19.03;;
39218;SDS011;24934;52.752;6.964;2023-03-01T13:37:28;20.73;;;18.73;;
39218;SDS011;24934;52.752;6.964;2023-03-01T13:39:56;21.10;;;19.00;;
39218;SDS011;24934;52.752;6.964;2023-03-01T13:42:37;21.23;;;19.23;;
39218;SDS011;24934;52.752;6.964;2023-03-01T13:45:16;21.17;;;19.03;;
39218;SDS011;24934;52.752;6.964;2023-03-01T13:48:04;21.00;;;18.97;;
39218;SDS011;24934;52.752;6.964;2023-03-01T13:51:06;21.83;;;19.63;;
39218;SDS011;24934;52.752;6.964;2023-03-01T13:53:36;21.37;;;19.17;;
39218;SDS011;24934;52.752;6.964;2023-03-01T13:56:17;24.17;;;19.30;;
39218;SDS011;24934;52.752;6.964;2023-03-01T13:58:52;20.97;;;18.90;;
39218;SDS011;24934;52.752;6.964;2023-03-01T14:01:26;21.37;;;19.27;;
39218;SDS011;24934;52.752;6.964;2023-03-01T14:04:00;21.67;;;19.37;;
39218;SDS011;24934;52.752;6.964;2023-03-01T14:06:33;21.27;;;19.27;;
39218;SDS011;24934;52.752;6.964;2023-03-01T14:09:05;23.33;;;20.87;;
39218;SDS011;24934;52.752;6.964;2023-03-01T14:14:26;23.00;;;20.70;;
39218;SDS011;24934;52.752;6.964;2023-03-01T14:17:02;23.27;;;20.83;;
39218;SDS011;24934;52.752;6.964;2023-03-01T14:19:32;24.13;;;21.70;;
39218;SDS011;24934;52.752;6.964;2023-03-01T14:28:19;24.87;;;22.03;;
39218;SDS011;24934;52.752;6.964;2023-03-01T14:30:48;24.80;;;22.10;;
39218;SDS011;24934;52.752;6.964;2023-03-01T14:33:25;24.63;;;22.07;;
39218;SDS011;24934;52.752;6.964;2023-03-01T14:35:55;23.97;;;21.57;;
39218;SDS011;24934;52.752;6.964;2023-03-01T14:38:22;23.80;;;21.40;;
39218;SDS011;24934;52.752;6.964;2023-03-01T14:40:54;25.03;;;21.90;;
39218;SDS011;24934;52.752;6.964;2023-03-01T14:43:26;23.67;;;21.23;;
39218;SDS011;24934;52.752;6.964;2023-03-01T14:45:54;23.53;;;20.87;;
39218;SDS011;24934;52.752;6.964;2023-03-01T14:48:20;24.17;;;20.80;;
39218;SDS011;24934;52.752;6.964;2023-03-01T14:50:46;23.17;;;20.80;;
39218;SDS011;24934;52.752;6.964;2023-03-01T14:53:15;23.90;;;21.30;;
39218;SDS011;24934;52.752;6.964;2023-03-01T14:55:54;23.00;;;20.67;;
39218;SDS011;24934;52.752;6.964;2023-03-01T14:58:23;23.33;;;20.27;;
39218;SDS011;24934;52.752;6.964;2023-03-01T15:03:25;24.00;;;19.60;;
39218;SDS011;24934;52.752;6.964;2023-03-01T15:06:09;21.40;;;19.07;;
39218;SDS011;24934;52.752;6.964;2023-03-01T15:08:37;20.77;;;18.33;;
39218;SDS011;24934;52.752;6.964;2023-03-01T15:13:38;21.23;;;18.53;;
39218;SDS011;24934;52.752;6.964;2023-03-01T15:16:38;20.07;;;17.97;;
39218;SDS011;24934;52.752;6.964;2023-03-01T15:21:29;20.77;;;18.53;;
39218;SDS011;24934;52.752;6.964;2023-03-01T15:26:44;20.00;;;17.87;;
39218;SDS011;24934;52.752;6.964;2023-03-01T15:29:23;19.80;;;17.73;;
39218;SDS011;24934;52.752;6.964;2023-03-01T15:32:01;19.23;;;17.33;;
39218;SDS011;24934;52.752;6.964;2023-03-01T15:34:46;21.27;;;18.27;;
39218;SDS011;24934;52.752;6.964;2023-03-01T15:37:35;20.80;;;18.60;;
39218;SDS011;24934;52.752;6.964;2023-03-01T15:40:28;21.53;;;17.87;;
39218;SDS011;24934;52.752;6.964;2023-03-01T15:43:01;22.57;;;17.50;;
39218;SDS011;24934;52.752;6.964;2023-03-01T15:45:31;19.43;;;17.27;;
39218;SDS011;24934;52.752;6.964;2023-03-01T15:48:04;19.37;;;17.30;;
39218;SDS011;24934;52.752;6.964;2023-03-01T15:50:40;18.67;;;16.83;;
39218;SDS011;24934;52.752;6.964;2023-03-01T15:53:10;19.40;;;17.40;;
39218;SDS011;24934;52.752;6.964;2023-03-01T15:55:39;19.60;;;17.50;;
39218;SDS011;24934;52.752;6.964;2023-03-01T15:58:15;19.73;;;17.63;;
39218;SDS011;24934;52.752;6.964;2023-03-01T16:00:44;19.23;;;17.17;;
39218;SDS011;24934;52.752;6.964;2023-03-01T16:03:13;19.60;;;17.60;;
39218;SDS011;24934;52.752;6.964;2023-03-01T16:05:39;21.03;;;17.50;;
39218;SDS011;24934;52.752;6.964;2023-03-01T16:08:05;19.00;;;17.10;;
39218;SDS011;24934;52.752;6.964;2023-03-01T16:10:32;21.23;;;18.23;;
39218;SDS011;24934;52.752;6.964;2023-03-01T16:12:58;19.50;;;17.40;;
39218;SDS011;24934;52.752;6.964;2023-03-01T16:15:30;19.33;;;17.03;;
39218;SDS011;24934;52.752;6.964;2023-03-01T16:17:59;19.87;;;17.17;;
39218;SDS011;24934;52.752;6.964;2023-03-01T16:20:25;18.83;;;16.93;;
39218;SDS011;24934;52.752;6.964;2023-03-01T16:22:51;19.23;;;17.20;;
39218;SDS011;24934;52.752;6.964;2023-03-01T16:25:17;17.90;;;16.00;;
39218;SDS011;24934;52.752;6.964;2023-03-01T16:27:45;17.87;;;15.90;;
39218;SDS011;24934;52.752;6.964;2023-03-01T16:30:12;18.57;;;15.87;;
39218;SDS011;24934;52.752;6.964;2023-03-01T16:32:40;18.67;;;16.47;;